createdAt,value
2022-07-29T01:21:47.512Z,24.00
2022-07-29T01:32:28.227Z,23.72
2022-07-29T01:54:21.822Z,23.44
2022-07-29T06:33:06.230Z,26.83
2022-07-29T06:53:58.448Z,29.01
2022-07-29T07:04:25.329Z,29.25
2022-07-29T07:47:24.178Z,30.59
2022-07-29T07:58:15.159Z,31.58
2022-07-29T08:19:44.108Z,31.65
2022-07-29T09:23:44.846Z,33.50
2022-07-29T10:16:58.237Z,35.59
2022-07-29T11:20:42.516Z,37.35
2022-07-29T11:30:59.797Z,36.59
2022-07-29T11:41:53.797Z,37.08
2022-07-29T12:02:48.498Z,38.28
2022-07-29T12:13:12.577Z,37.82
2022-07-29T12:23:34.661Z,38.96
2022-07-29T12:45:52.541Z,38.86
2022-07-29T12:57:03.233Z,38.95
2022-07-29T13:08:21.976Z,38.61
2022-07-29T13:30:06.936Z,38.99
2022-07-29T13:40:21.545Z,38.91
2022-07-29T13:50:55.348Z,39.48
2022-07-29T14:12:11.392Z,38.38
2022-07-29T14:22:29.965Z,38.63
2022-07-29T14:54:29.259Z,38.22
2022-07-29T15:05:01.680Z,38.21
2022-07-29T16:20:53.366Z,35.99
2022-07-29T16:31:24.628Z,35.54
2022-07-29T18:28:08.614Z,31.23
2022-07-29T18:38:11.882Z,31.51
2022-07-29T18:48:16.533Z,31.24
2022-07-29T18:58:20.126Z,31.51
2022-07-29T19:08:24.710Z,30.82
2022-07-29T19:18:28.385Z,30.91
2022-07-29T19:28:33.687Z,30.35
2022-07-29T19:38:38.246Z,30.54
2022-07-29T19:48:42.912Z,30.13
2022-07-29T19:58:46.233Z,30.06
2022-07-29T20:08:55.362Z,29.36
2022-07-29T20:19:01.882Z,29.08
2022-07-29T20:29:06.456Z,28.60
2022-07-29T20:39:09.720Z,28.73
2022-07-29T20:49:14.361Z,28.89
2022-07-29T20:59:17.818Z,28.01
2022-07-29T21:09:22.399Z,28.01
2022-07-29T21:19:26.283Z,28.03
2022-07-29T21:29:31.296Z,27.63
2022-07-29T21:39:34.428Z,27.63
2022-07-29T21:49:39.023Z,27.78
2022-07-29T21:59:42.157Z,27.62
2022-07-29T22:09:46.687Z,27.39
2022-07-29T22:19:49.858Z,27.00
2022-07-29T22:29:54.402Z,27.20
2022-07-29T22:39:58.372Z,26.86
2022-07-29T22:50:02.977Z,26.89
2022-07-29T23:00:07.650Z,26.44
2022-07-29T23:10:12.493Z,26.42
2022-07-29T23:20:15.788Z,26.20
2022-07-29T23:30:20.300Z,26.35
2022-07-29T23:40:23.479Z,26.26
2022-07-29T23:50:27.992Z,25.55
